Time;durP1;ratioP1;P1;durP2;ratioP2;P2;SDS_P1;SDS_P2;PMS_P1;PMS_P2;Temp;Humidity;BMP_temperature;BMP_pressure;BME280_temperature;BME280_humidity;BME280_pressure;Samples;Min_cycle;Max_cycle;Signal;HPM_P1;HPM_P2
2021/05/09 00:01:44;;;;;;;3.95;2.70;;;;;;;4.38;75.35;99733.62;1783072;79;21138;-74
2021/05/09 00:04:12;;;;;;;4.40;2.70;;;;;;;4.30;75.56;99733.97;1795576;79;21693;-73
2021/05/09 00:06:39;;;;;;;4.25;2.77;;;;;;;4.22;75.67;99736.92;1775509;79;21324;-73
2021/05/09 00:09:06;;;;;;;3.47;2.80;;;;;;;4.27;75.59;99730.16;1802152;78;21201;-73
2021/05/09 00:11:33;;;;;;;3.77;2.80;;;;;;;4.43;75.22;99739.50;1768305;79;21150;-74
2021/05/09 00:14:01;;;;;;;3.87;2.60;;;;;;;4.46;75.12;99738.51;1798408;78;21303;-73
2021/05/09 00:16:29;;;;;;;3.95;2.95;;;;;;;4.40;75.22;99740.48;1774261;81;21143;-73
2021/05/09 00:18:57;;;;;;;4.53;3.15;;;;;;;4.33;75.34;99744.28;1763804;80;21781;-73
2021/05/09 00:21:24;;;;;;;3.60;2.70;;;;;;;4.28;75.43;99741.02;1767804;80;21214;-75
2021/05/09 00:23:51;;;;;;;4.92;2.95;;;;;;;4.39;75.15;99752.34;1766980;80;21191;-74
2021/05/09 00:26:19;;;;;;;3.98;2.80;;;;;;;4.50;74.96;99757.95;1772050;79;21195;-74
2021/05/09 00:28:46;;;;;;;4.15;3.00;;;;;;;4.45;75.08;99747.28;1793077;78;22254;-74
2021/05/09 00:31:13;;;;;;;4.20;3.10;;;;;;;4.37;75.20;99751.11;1771658;80;21183;-74
2021/05/09 00:33:41;;;;;;;4.22;2.83;;;;;;;4.29;75.29;99753.67;1765158;80;21146;-74
2021/05/09 00:36:08;;;;;;;4.85;3.30;;;;;;;4.32;75.27;99756.98;1765576;80;21192;-74
2021/05/09 00:38:35;;;;;;;3.90;3.17;;;;;;;4.45;74.85;99756.45;1822657;78;21587;-73
2021/05/09 00:41:02;;;;;;;4.58;3.00;;;;;;;4.38;74.91;99760.64;1755313;80;21260;-73
2021/05/09 00:43:30;;;;;;;4.53;3.37;;;;;;;4.32;75.20;99761.38;1792397;78;21606;-73
2021/05/09 00:45:58;;;;;;;4.62;3.42;;;;;;;4.29;75.29;99764.98;1821750;78;21134;-73
2021/05/09 00:48:28;;;;;;;7.00;3.40;;;;;;;4.28;75.20;99768.98;1825126;78;21169;-73
2021/05/09 00:50:56;;;;;;;6.67;3.77;;;;;;;4.43;74.78;99773.06;1824164;78;21275;-73
2021/05/09 00:53:23;;;;;;;5.67;3.80;;;;;;;4.48;74.72;99766.80;1824966;78;21721;-73
2021/05/09 00:55:51;;;;;;;6.37;3.77;;;;;;;4.42;74.73;99770.52;1772264;79;21612;-72
2021/05/09 00:58:19;;;;;;;4.67;3.70;;;;;;;4.33;74.83;99767.85;1786429;79;21162;-73
2021/05/09 01:00:47;;;;;;;5.15;3.50;;;;;;;4.25;74.93;99777.35;1789915;79;21178;-74
2021/05/09 01:03:14;;;;;;;4.70;3.62;;;;;;;4.25;74.86;99785.67;1735181;80;21515;-75
2021/05/09 01:05:42;;;;;;;4.90;3.65;;;;;;;4.39;74.48;99784.61;1749698;80;21229;-73
2021/05/09 01:08:10;;;;;;;5.47;3.72;;;;;;;4.37;74.58;99783.84;1774034;79;21262;-75
2021/05/09 01:10:39;;;;;;;5.53;3.92;;;;;;;4.30;74.68;99781.09;1762859;80;21141;-73
2021/05/09 01:13:07;;;;;;;4.95;3.72;;;;;;;4.22;74.80;99791.03;1766805;80;21338;-72
2021/05/09 01:15:36;;;;;;;5.37;3.95;;;;;;;4.16;74.96;99791.32;1781270;80;21616;-73
2021/05/09 01:18:04;;;;;;;8.40;4.12;;;;;;;4.22;74.70;99796.27;1797193;79;21321;-73
2021/05/09 01:20:36;;;;;;;5.95;3.80;;;;;;;4.29;74.43;99788.55;1741599;80;21161;-73
2021/05/09 01:23:05;;;;;;;5.78;3.90;;;;;;;4.23;74.66;99789.67;1774326;80;21159;-73
2021/05/09 01:25:33;;;;;;;5.45;4.05;;;;;;;4.14;74.79;99793.14;1779757;80;21773;-73
2021/05/09 01:28:00;;;;;;;4.47;3.17;;;;;;;4.06;74.88;99798.23;1773746;80;21737;-73
2021/05/09 01:30:28;;;;;;;4.65;3.50;;;;;;;3.98;74.96;99799.03;1772906;79;21321;-73
2021/05/09 01:32:56;;;;;;;5.10;3.85;;;;;;;3.96;74.94;99799.55;1785557;79;21732;-73
2021/05/09 01:35:23;;;;;;;5.03;3.70;;;;;;;4.10;74.60;99802.45;1821962;79;21319;-74
2021/05/09 01:37:51;;;;;;;5.12;3.92;;;;;;;4.07;74.79;99799.94;1792166;79;21130;-74
2021/05/09 01:40:19;;;;;;;6.47;3.90;;;;;;;3.96;75.09;99807.39;1764968;80;21174;-74
2021/05/09 01:42:46;;;;;;;6.30;3.92;;;;;;;3.87;75.25;99807.78;1774988;79;21284;-75
2021/05/09 01:45:15;;;;;;;4.58;3.55;;;;;;;3.88;75.20;99816.03;1764309;80;21217;-74
2021/05/09 01:47:43;;;;;;;4.55;3.52;;;;;;;4.02;74.90;99813.68;1778446;79;21191;-74
2021/05/09 01:50:16;;;;;;;6.00;3.67;;;;;;;3.98;74.99;99817.34;1769934;80;21272;-74
2021/05/09 01:52:46;;;;;;;5.53;3.58;;;;;;;3.91;75.18;99819.82;1763813;80;21173;-74
2021/05/09 01:55:21;;;;;;;4.85;3.50;;;;;;;3.82;75.29;99822.83;1774170;81;21190;-74
2021/05/09 01:57:53;;;;;;;4.78;3.47;;;;;;;3.77;75.44;99822.56;1786224;80;21212;-74
2021/05/09 02:00:23;;;;;;;5.58;3.80;;;;;;;3.91;75.04;99827.23;1788974;80;21319;-74
2021/05/09 02:02:55;;;;;;;6.22;3.40;;;;;;;3.94;74.97;99825.78;1792732;80;21613;-74
2021/05/09 02:05:24;;;;;;;6.67;3.67;;;;;;;3.85;75.08;99819.63;1793714;80;21162;-74
2021/05/09 02:07:52;;;;;;;6.15;3.85;;;;;;;3.76;75.24;99834.41;1786194;79;21329;-73
2021/05/09 02:10:19;;;;;;;6.28;3.58;;;;;;;3.66;75.35;99832.61;1799868;78;21744;-74
2021/05/09 02:12:48;;;;;;;7.50;4.05;;;;;;;3.70;75.26;99844.64;1771851;80;21207;-74
2021/05/09 02:15:17;;;;;;;6.80;3.77;;;;;;;3.85;74.89;99847.54;1765485;80;21590;-74
2021/05/09 02:17:45;;;;;;;8.63;4.47;;;;;;;3.84;75.00;99852.41;1777901;79;21194;-74
2021/05/09 02:20:15;;;;;;;8.23;4.58;;;;;;;3.77;75.10;99846.11;1763971;80;21788;-75
2021/05/09 02:22:44;;;;;;;7.75;4.00;;;;;;;3.72;75.27;99848.50;1786788;79;21516;-74
2021/05/09 02:25:11;;;;;;;8.95;5.20;;;;;;;3.63;75.33;99845.80;1825394;78;21142;-74
2021/05/09 02:27:39;;;;;;;10.78;5.08;;;;;;;3.63;75.41;99847.09;1798749;79;21157;-74
2021/05/09 02:30:08;;;;;;;12.98;5.60;;;;;;;3.78;75.02;99854.80;1781799;79;21197;-75
2021/05/09 02:32:35;;;;;;;11.10;6.35;;;;;;;3.79;75.08;99851.74;1774164;79;21143;-75
2021/05/09 02:35:04;;;;;;;10.48;5.33;;;;;;;3.72;75.24;99859.83;1761646;81;21201;-74
2021/05/09 02:37:31;;;;;;;10.95;6.00;;;;;;;3.64;75.48;99866.28;1741090;80;21141;-74
2021/05/09 02:39:59;;;;;;;8.90;5.15;;;;;;;3.55;75.67;99876.64;1821477;78;21618;-74
2021/05/09 02:42:27;;;;;;;8.45;5.20;;;;;;;3.56;75.72;99881.80;1804903;79;21203;-74
2021/05/09 02:44:55;;;;;;;9.88;4.62;;;;;;;3.73;75.37;99882.47;1780902;80;21153;-75
2021/05/09 02:47:29;;;;;;;8.05;4.33;;;;;;;3.77;75.49;99886.66;1777117;79;21190;-74
2021/05/09 02:50:00;;;;;;;6.97;4.28;;;;;;;3.71;75.69;99897.36;1777855;79;21272;-74
2021/05/09 02:52:27;;;;;;;7.08;4.62;;;;;;;3.68;75.86;99894.01;1791470;79;21141;-75
2021/05/09 02:54:57;;;;;;;7.62;4.40;;;;;;;3.71;75.85;99899.98;1793582;79;21163;-75
2021/05/09 02:57:25;;;;;;;9.48;4.35;;;;;;;3.88;75.47;99898.45;1794911;79;21233;-75
2021/05/09 02:59:53;;;;;;;8.50;4.20;;;;;;;3.90;75.51;99905.77;1779240;79;21170;-74
2021/05/09 03:02:20;;;;;;;7.55;4.65;;;;;;;3.84;75.67;99909.49;1756597;81;21340;-75
2021/05/09 03:04:50;;;;;;;7.47;4.03;;;;;;;3.82;75.87;99919.63;1768640;80;21130;-75
2021/05/09 03:07:18;;;;;;;9.60;4.20;;;;;;;3.87;75.87;99915.06;1768065;80;21158;-75
2021/05/09 03:09:46;;;;;;;6.33;3.95;;;;;;;4.06;75.53;99924.33;1806591;78;21157;-76
2021/05/09 03:12:13;;;;;;;8.75;4.50;;;;;;;4.06;75.49;99930.41;1763109;80;21185;-75
2021/05/09 03:14:42;;;;;;;5.47;3.85;;;;;;;4.02;75.76;99934.53;1765796;80;21527;-75
2021/05/09 03:17:09;;;;;;;7.95;4.30;;;;;;;3.98;75.93;99939.03;1768522;80;21404;-75
2021/05/09 03:19:36;;;;;;;9.63;3.70;;;;;;;3.99;76.00;99945.98;1761106;80;21213;-75
2021/05/09 03:22:03;;;;;;;9.68;4.50;;;;;;;4.32;75.84;99944.19;1772859;79;21146;-75
2021/05/09 03:24:31;;;;;;;8.75;4.17;;;;;;;4.71;74.67;99944.74;1769465;80;21206;-75
2021/05/09 03:27:00;;;;;;;6.97;3.98;;;;;;;4.71;74.15;99947.36;1775076;79;21197;-75
2021/05/09 03:29:27;;;;;;;6.75;4.40;;;;;;;4.70;74.48;99948.27;1761374;80;21231;-75
2021/05/09 03:31:54;;;;;;;6.92;4.03;;;;;;;5.20;74.62;99951.38;1774584;80;21162;-76
2021/05/09 03:34:22;;;;;;;5.78;3.98;;;;;;;5.98;72.93;99959.16;1776039;80;21587;-74
2021/05/09 03:36:49;;;;;;;5.47;3.80;;;;;;;6.84;70.71;99954.06;1772683;80;21197;-75
2021/05/09 03:39:16;;;;;;;6.15;3.90;;;;;;;7.54;67.95;99953.44;1792606;79;21115;-75
2021/05/09 03:41:44;;;;;;;6.50;4.05;;;;;;;7.91;65.96;99964.19;1784696;80;21174;-74
2021/05/09 03:44:11;;;;;;;7.10;4.00;;;;;;;8.18;64.36;99961.77;1757231;80;21163;-75
2021/05/09 03:46:38;;;;;;;5.50;3.77;;;;;;;8.43;63.71;99956.42;1774281;79;21197;-75
2021/05/09 03:49:05;;;;;;;5.58;4.20;;;;;;;8.72;62.45;99964.42;1804603;78;21130;-75
2021/05/09 03:51:34;;;;;;;4.70;3.47;;;;;;;8.85;62.25;99958.81;1774241;81;21583;-75
2021/05/09 03:54:01;;;;;;;7.30;4.00;;;;;;;9.13;61.29;99957.13;1761277;81;21327;-76
2021/05/09 03:56:30;;;;;;;5.75;3.80;;;;;;;9.42;59.54;99962.41;1785009;79;21154;-76
2021/05/09 03:58:57;;;;;;;8.75;4.00;;;;;;;9.48;60.09;99962.87;1824363;78;21150;-76
2021/05/09 04:01:24;;;;;;;5.90;3.60;;;;;;;9.86;59.90;99964.05;1791257;79;21190;-77
2021/05/09 04:03:52;;;;;;;6.00;3.30;;;;;;;10.27;57.70;99960.51;1822619;78;21154;-77
2021/05/09 04:06:19;;;;;;;6.12;3.37;;;;;;;10.48;57.02;99968.83;1800256;79;21162;-77
2021/05/09 04:08:47;;;;;;;5.53;3.62;;;;;;;10.67;56.25;99976.03;1781516;80;21175;-75
2021/05/09 04:11:16;;;;;;;5.45;3.45;;;;;;;10.80;56.25;99976.40;1785187;79;21209;-77
2021/05/09 04:13:46;;;;;;;4.80;3.90;;;;;;;10.86;55.38;99980.45;1773871;80;21122;-75
2021/05/09 04:16:14;;;;;;;4.67;3.60;;;;;;;10.96;55.75;99988.13;1787133;80;21187;-75
2021/05/09 04:18:42;;;;;;;5.05;3.42;;;;;;;11.15;54.53;99990.82;1781806;79;21548;-75
2021/05/09 04:21:09;;;;;;;4.87;3.17;;;;;;;11.33;54.87;99992.70;1807613;78;21221;-75
2021/05/09 04:23:36;;;;;;;4.37;3.55;;;;;;;11.68;53.36;99984.55;1780973;79;21223;-75
2021/05/09 04:26:06;;;;;;;4.30;3.30;;;;;;;11.96;53.49;99982.94;1761914;81;21126;-75
2021/05/09 04:28:33;;;;;;;3.60;2.98;;;;;;;12.26;51.78;99994.94;1762286;81;21331;-74
2021/05/09 04:31:00;;;;;;;7.30;3.75;;;;;;;12.24;52.44;99986.23;1764382;80;21275;-75
2021/05/09 04:33:28;;;;;;;5.90;3.20;;;;;;;12.54;52.14;99984.91;1765735;80;21607;-75
2021/05/09 04:35:56;;;;;;;4.53;3.37;;;;;;;12.92;51.26;99993.11;1775720;81;21576;-74
2021/05/09 04:38:23;;;;;;;4.50;3.55;;;;;;;13.13;51.07;99993.74;1774342;80;21203;-74
2021/05/09 04:40:50;;;;;;;4.53;3.70;;;;;;;13.19;50.00;99993.77;1756848;79;21170;-74
2021/05/09 04:43:19;;;;;;;4.97;3.25;;;;;;;13.19;50.00;99993.77;1791976;80;21748;-74
2021/05/09 04:45:52;;;;;;;4.67;3.10;;;;;;;13.41;50.54;99993.83;1805902;79;21629;-74
2021/05/09 04:48:21;;;;;;;6.03;3.40;;;;;;;13.71;49.63;100002.16;1791869;79;21308;-74
2021/05/09 04:50:49;;;;;;;4.45;3.20;;;;;;;13.96;48.39;100013.47;1773613;80;21197;-75
2021/05/09 04:53:31;;;;;;;3.83;3.40;;;;;;;13.97;48.88;100016.00;1774492;80;21650;-75
2021/05/09 04:56:03;;;;;;;4.55;3.20;;;;;;;14.02;47.90;100020.96;1782903;80;21225;-75
2021/05/09 04:58:30;;;;;;;4.60;3.25;;;;;;;13.97;47.92;100015.17;1810214;79;22206;-73
2021/05/09 05:01:01;;;;;;;4.12;3.33;;;;;;;14.10;47.96;100023.83;1801094;78;21194;-73
2021/05/09 05:03:29;;;;;;;3.85;3.10;;;;;;;14.24;47.70;100022.72;1761297;81;21363;-74
2021/05/09 05:05:57;;;;;;;4.50;3.10;;;;;;;14.41;48.31;100026.65;1769404;80;21197;-74
2021/05/09 05:08:24;;;;;;;4.47;3.33;;;;;;;14.59;47.19;100033.59;1800392;79;21293;-72
2021/05/09 05:10:51;;;;;;;5.90;3.40;;;;;;;14.55;46.02;100037.02;1786772;79;21162;-72
2021/05/09 05:13:23;;;;;;;5.45;3.30;;;;;;;14.43;47.56;100046.84;1761678;79;21745;-72
2021/05/09 05:15:55;;;;;;;4.03;3.40;;;;;;;14.56;46.21;100036.52;1772135;81;21196;-72
2021/05/09 05:18:24;;;;;;;3.90;2.95;;;;;;;14.55;47.01;100038.36;1772555;79;21099;-72
2021/05/09 05:20:52;;;;;;;4.12;3.50;;;;;;;14.79;46.85;100038.63;1770362;79;21139;-72
2021/05/09 05:23:19;;;;;;;4.03;3.00;;;;;;;15.06;45.57;100041.28;1807069;78;21158;-73
2021/05/09 05:25:46;;;;;;;3.85;3.10;;;;;;;15.08;45.72;100037.52;1776042;81;21207;-72
2021/05/09 05:28:14;;;;;;;3.83;3.15;;;;;;;14.97;44.83;100045.56;1779400;79;21190;-72
2021/05/09 05:30:41;;;;;;;3.55;2.75;;;;;;;14.93;45.49;100044.64;1795944;79;21138;-72
2021/05/09 05:33:08;;;;;;;4.47;3.10;;;;;;;15.02;44.39;100045.19;1773670;79;21159;-72
2021/05/09 05:35:35;;;;;;;5.05;3.12;;;;;;;14.98;45.49;100041.93;1775631;80;21662;-72
2021/05/09 05:38:04;;;;;;;3.95;3.10;;;;;;;15.13;46.21;100046.45;1764095;80;21609;-72
2021/05/09 05:40:31;;;;;;;4.60;3.08;;;;;;;15.23;45.25;100040.70;1790365;80;21166;-72
2021/05/09 05:42:59;;;;;;;3.52;2.60;;;;;;;15.10;43.24;100041.38;1776913;80;21165;-72
2021/05/09 05:45:26;;;;;;;4.12;2.70;;;;;;;14.53;45.27;100048.77;1774229;81;21167;-73
2021/05/09 05:47:53;;;;;;;10.28;7.65;;;;;;;14.51;45.93;100050.20;1768758;80;21132;-72
2021/05/09 05:50:20;;;;;;;6.72;3.37;;;;;;;14.54;46.57;100053.95;1774282;79;21163;-73
2021/05/09 05:52:49;;;;;;;4.08;3.00;;;;;;;14.68;44.31;100049.33;1787218;80;21721;-72
2021/05/09 05:55:17;;;;;;;3.95;3.05;;;;;;;14.49;44.36;100050.83;1773570;79;21144;-73
2021/05/09 05:57:44;;;;;;;3.75;2.85;;;;;;;14.26;45.89;100054.04;1782551;80;21167;-73
2021/05/09 06:00:13;;;;;;;3.27;2.60;;;;;;;14.30;45.92;100052.81;1776274;80;21131;-73
2021/05/09 06:02:40;;;;;;;4.20;2.92;;;;;;;14.46;45.80;100056.38;1780399;79;21623;-73
2021/05/09 06:05:09;;;;;;;3.42;2.47;;;;;;;14.51;44.88;100059.52;1771814;80;21173;-73
2021/05/09 06:07:38;;;;;;;3.65;2.80;;;;;;;14.58;44.03;100057.22;1779346;79;21163;-73
2021/05/09 06:10:06;;;;;;;3.45;2.50;;;;;;;14.49;45.86;100053.48;1788355;80;21142;-73
2021/05/09 06:12:33;;;;;;;4.05;2.25;;;;;;;14.63;45.82;100057.68;1775306;79;21332;-74
2021/05/09 06:15:03;;;;;;;3.80;2.55;;;;;;;14.72;44.80;100060.11;1799352;78;21765;-73
2021/05/09 06:17:30;;;;;;;4.05;2.60;;;;;;;14.76;44.13;100057.54;1777638;79;21204;-73
2021/05/09 06:19:58;;;;;;;3.08;2.40;;;;;;;14.71;43.78;100064.56;1776912;80;21127;-73
2021/05/09 06:22:25;;;;;;;3.10;2.60;;;;;;;14.63;43.52;100065.66;1777802;80;21157;-73
2021/05/09 06:24:55;;;;;;;11.88;9.40;;;;;;;14.55;43.39;100072.09;1770429;80;21218;-73
2021/05/09 06:27:22;;;;;;;5.85;4.53;;;;;;;14.46;44.71;100076.34;1777419;80;21298;-74
2021/05/09 06:29:49;;;;;;;3.22;2.60;;;;;;;14.55;44.69;100078.27;1773387;79;21586;-73
2021/05/09 06:32:16;;;;;;;3.00;2.58;;;;;;;14.64;43.17;100080.70;1771319;80;21181;-74
2021/05/09 06:34:46;;;;;;;5.47;2.60;;;;;;;14.65;42.28;100075.71;1773070;80;21207;-73
2021/05/09 06:37:14;;;;;;;3.62;2.30;;;;;;;14.61;44.01;100075.58;1792014;80;21165;-74
2021/05/09 06:39:44;;;;;;;3.75;2.27;;;;;;;14.72;43.32;100078.73;1772848;79;21159;-73
2021/05/09 06:42:11;;;;;;;4.87;2.80;;;;;;;14.57;44.05;100074.98;1790956;80;21181;-73
2021/05/09 06:44:43;;;;;;;3.17;2.50;;;;;;;14.48;45.35;100075.74;1782168;79;21700;-75
2021/05/09 06:47:07;;;;;;;3.33;2.58;;;;;;;14.52;44.49;100081.17;1777111;79;21274;-77
2021/05/09 06:49:36;;;;;;;4.08;2.67;;;;;;;14.68;44.01;100083.94;1785228;80;21185;-76
2021/05/09 06:52:05;;;;;;;3.20;2.45;;;;;;;14.81;43.89;100083.30;1788100;79;21375;-74
2021/05/09 06:54:34;;;;;;;3.40;2.47;;;;;;;14.89;43.38;100089.31;1781747;79;21489;-75
2021/05/09 06:57:03;;;;;;;3.62;2.30;;;;;;;14.85;44.44;100090.05;1790894;80;21174;-74
2021/05/09 06:59:31;;;;;;;5.40;2.72;;;;;;;14.94;44.36;100091.61;1776795;79;21167;-74
2021/05/09 07:01:58;;;;;;;2.87;2.35;;;;;;;14.90;42.20;100085.69;1776291;80;21114;-74
2021/05/09 07:04:26;;;;;;;3.12;2.42;;;;;;;14.80;43.50;100086.92;1787981;79;21118;-74
2021/05/09 07:06:53;;;;;;;3.02;2.35;;;;;;;14.78;42.44;100089.35;1810301;78;21185;-74
2021/05/09 07:09:20;;;;;;;3.10;2.50;;;;;;;14.70;43.04;100083.33;1777500;79;21167;-73
2021/05/09 07:11:49;;;;;;;3.40;2.58;;;;;;;14.62;42.76;100078.61;1789634;80;21138;-73
2021/05/09 07:14:17;;;;;;;3.00;2.50;;;;;;;14.52;42.92;100077.67;1764024;80;21180;-74
2021/05/09 07:16:44;;;;;;;3.35;2.60;;;;;;;14.33;41.09;100074.33;1779294;79;21195;-74
2021/05/09 07:19:11;;;;;;;2.90;2.60;;;;;;;14.25;42.58;100092.25;1782385;79;21307;-74
2021/05/09 07:21:42;;;;;;;3.70;2.80;;;;;;;14.19;42.12;100095.39;1775368;79;21203;-74
2021/05/09 07:24:09;;;;;;;3.42;2.50;;;;;;;14.06;43.59;100079.08;1776184;78;21145;-73
2021/05/09 07:26:36;;;;;;;3.10;2.30;;;;;;;14.04;42.85;100085.02;1774691;80;21267;-73
2021/05/09 07:29:04;;;;;;;4.10;2.35;;;;;;;13.96;44.77;100088.75;1767294;80;21121;-73
2021/05/09 07:31:40;;;;;;;4.40;2.60;;;;;;;14.08;42.72;100086.95;1769090;79;21327;-73
2021/05/09 07:34:04;;;;;;;3.45;2.52;;;;;;;14.24;43.25;100090.05;1776664;79;21305;-74
2021/05/09 07:36:32;;;;;;;3.22;2.55;;;;;;;14.24;41.83;100090.05;1762766;80;21637;-74
2021/05/09 07:38:59;;;;;;;2.70;2.40;;;;;;;14.05;43.16;100092.03;1774173;79;21144;-74
2021/05/09 07:41:26;;;;;;;3.25;2.50;;;;;;;13.96;43.25;100091.91;1771553;80;21582;-75
2021/05/09 07:43:54;;;;;;;2.90;2.22;;;;;;;13.91;42.59;100093.12;1780558;79;21139;-75
2021/05/09 07:46:21;;;;;;;3.45;2.55;;;;;;;13.93;43.19;100091.17;1791803;80;21646;-74
2021/05/09 07:48:49;;;;;;;2.60;2.33;;;;;;;14.05;43.74;100093.83;1759309;80;21374;-75
2021/05/09 07:51:17;;;;;;;3.87;2.50;;;;;;;14.04;43.50;100088.14;1800430;79;21203;-74
2021/05/09 07:53:47;;;;;;;3.42;2.50;;;;;;;13.90;42.28;100091.89;1775556;80;21121;-74
2021/05/09 07:56:14;;;;;;;4.10;2.35;;;;;;;13.67;42.66;100087.05;1773611;80;21566;-73
2021/05/09 07:58:41;;;;;;;4.37;2.60;;;;;;;13.62;43.01;100086.57;1764101;80;21209;-74
2021/05/09 08:01:08;;;;;;;3.00;2.37;;;;;;;13.78;42.47;100094.20;1761579;81;21141;-73
2021/05/09 08:03:35;;;;;;;3.30;2.40;;;;;;;13.85;42.39;100100.25;1764391;80;21166;-73
2021/05/09 08:06:04;;;;;;;3.17;2.37;;;;;;;13.98;43.45;100089.95;1767198;80;21179;-74
2021/05/09 08:08:32;;;;;;;2.75;2.20;;;;;;;14.19;44.20;100092.23;1762517;80;21587;-74
2021/05/09 08:11:00;;;;;;;2.85;2.25;;;;;;;14.37;41.43;100081.09;1770474;80;21594;-73
2021/05/09 08:13:27;;;;;;;3.40;2.30;;;;;;;14.37;42.12;100087.27;1775403;80;21631;-73
2021/05/09 08:15:54;;;;;;;3.45;2.30;;;;;;;14.36;40.42;100100.67;1779218;79;21328;-74
2021/05/09 08:18:24;;;;;;;3.27;2.15;;;;;;;14.34;41.99;100096.81;1784969;79;21296;-73
2021/05/09 08:20:55;;;;;;;2.98;2.20;;;;;;;14.28;41.42;100096.47;1803629;79;21203;-73
2021/05/09 08:23:23;;;;;;;2.70;2.20;;;;;;;14.21;40.11;100092.14;1793537;80;21761;-73
2021/05/09 08:25:50;;;;;;;2.85;2.10;;;;;;;14.17;40.87;100090.20;1785502;79;21361;-74
2021/05/09 08:28:17;;;;;;;2.72;2.20;;;;;;;14.17;41.23;100090.20;1792795;80;21177;-74
2021/05/09 08:30:45;;;;;;;2.52;2.15;;;;;;;14.13;40.51;100084.77;1788896;80;21173;-74
2021/05/09 08:33:12;;;;;;;2.67;2.17;;;;;;;14.09;41.12;100089.48;1769031;79;21261;-73
2021/05/09 08:35:42;;;;;;;3.37;2.40;;;;;;;13.97;41.64;100089.62;1771293;80;21159;-73
2021/05/09 08:38:09;;;;;;;2.60;2.10;;;;;;;13.95;40.96;100090.21;1774388;80;21162;-73
2021/05/09 08:40:38;;;;;;;2.95;2.20;;;;;;;14.01;40.62;100095.05;1795963;79;21336;-74
2021/05/09 08:43:05;;;;;;;2.87;2.20;;;;;;;14.02;40.06;100084.78;1789837;80;21193;-73
2021/05/09 08:45:32;;;;;;;3.05;2.22;;;;;;;14.04;41.84;100081.50;1775576;79;21269;-73
2021/05/09 08:48:00;;;;;;;2.35;2.00;;;;;;;13.98;39.42;100076.66;1779701;79;21163;-74
2021/05/09 08:50:28;;;;;;;3.47;2.05;;;;;;;13.62;40.23;100083.45;1777900;80;22856;-75
2021/05/09 08:52:56;;;;;;;2.87;2.10;;;;;;;13.27;40.36;100091.81;1789939;80;21141;-74
2021/05/09 08:55:26;;;;;;;3.60;2.22;;;;;;;13.27;41.46;100081.65;1788076;79;21193;-74
2021/05/09 08:57:56;;;;;;;2.92;2.42;;;;;;;13.41;43.01;100088.59;1789681;79;21098;-74
2021/05/09 09:00:26;;;;;;;3.10;2.15;;;;;;;13.55;42.34;100095.02;1822606;78;21385;-72
2021/05/09 09:02:56;;;;;;;2.92;2.27;;;;;;;13.60;43.13;100100.81;1824046;78;21721;-72
2021/05/09 09:05:46;;;;;;;4.35;2.52;;;;;;;13.77;44.41;100092.02;1815858;78;21331;-74
2021/05/09 09:08:17;;;;;;;2.98;2.30;;;;;;;14.08;44.05;100092.27;1793050;80;21178;-74
2021/05/09 09:10:51;;;;;;;2.90;2.30;;;;;;;14.32;42.63;100098.77;1792588;79;21100;-73
2021/05/09 09:13:31;;;;;;;2.90;2.20;;;;;;;14.33;40.31;100092.45;1791005;79;21383;-75
2021/05/09 09:16:06;;;;;;;3.00;2.35;;;;;;;14.26;41.67;100097.44;1804717;78;21193;-73
2021/05/09 09:18:42;;;;;;;2.92;2.35;;;;;;;14.23;42.22;100101.69;1825357;78;21622;-74
2021/05/09 09:21:27;;;;;;;4.05;2.60;;;;;;;14.26;41.48;100102.75;1824674;78;21153;-74
2021/05/09 09:23:56;;;;;;;3.55;2.27;;;;;;;14.24;42.10;100092.70;1823918;78;21698;-74
2021/05/09 09:28:30;;;;;;;3.40;2.20;;;;;;;13.98;39.82;100099.27;1819013;79;23191;-73
2021/05/09 09:30:57;;;;;;;2.95;2.37;;;;;;;13.79;41.09;100101.22;1790537;80;21329;-74
2021/05/09 09:33:25;;;;;;;2.75;2.10;;;;;;;13.87;42.22;100101.45;1788075;80;21135;-74
2021/05/09 09:35:57;;;;;;;3.27;2.37;;;;;;;13.90;41.07;100102.06;1767455;80;21135;-75
2021/05/09 09:38:31;;;;;;;2.37;2.10;;;;;;;13.91;41.42;100099.77;1731244;81;21122;-75
2021/05/09 09:41:16;;;;;;;5.05;3.17;;;;;;;13.86;41.36;100105.94;1733824;81;21607;-73
2021/05/09 09:44:05;;;;;;;3.52;2.80;;;;;;;13.77;42.95;100101.31;1710079;83;21571;-74
2021/05/09 09:46:42;;;;;;;2.98;2.20;;;;;;;13.98;42.00;100103.25;1726099;83;21195;-73
2021/05/09 09:49:23;;;;;;;3.02;2.30;;;;;;;14.13;42.27;100099.41;1719915;83;21175;-73
2021/05/09 09:51:58;;;;;;;3.52;2.15;;;;;;;14.23;41.29;100103.02;1704969;84;21203;-73
2021/05/09 09:54:46;;;;;;;4.47;2.10;;;;;;;14.07;39.58;100095.89;1730568;83;21135;-73
2021/05/09 09:57:30;;;;;;;2.22;2.00;;;;;;;13.86;40.61;100102.41;1730662;83;21174;-73
2021/05/09 10:00:13;;;;;;;2.20;2.00;;;;;;;13.84;40.54;100099.88;1739494;81;21151;-73
2021/05/09 10:02:43;;;;;;;2.92;2.12;;;;;;;14.12;41.48;100109.67;1755529;81;21599;-73
2021/05/09 10:05:11;;;;;;;2.95;2.10;;;;;;;14.12;41.48;100109.67;1712923;84;21166;-73
2021/05/09 10:07:38;;;;;;;4.65;2.50;;;;;;;14.12;40.87;100111.47;1735391;83;21154;-73
2021/05/09 10:10:07;;;;;;;2.42;2.10;;;;;;;14.03;41.21;100110.41;1712899;82;21197;-73
2021/05/09 10:12:35;;;;;;;2.22;2.00;;;;;;;14.02;42.51;100111.37;1735373;83;21587;-73
2021/05/09 10:15:05;;;;;;;3.12;2.33;;;;;;;14.14;41.34;100113.53;1725441;82;21187;-73
2021/05/09 10:17:33;;;;;;;3.05;2.20;;;;;;;14.21;42.16;100119.57;1742184;82;21546;-73
2021/05/09 10:20:04;;;;;;;3.20;2.17;;;;;;;14.26;40.44;100116.05;1713638;82;21348;-73
2021/05/09 10:22:34;;;;;;;2.83;2.30;;;;;;;14.28;41.54;100113.27;1685353;84;21180;-73
2021/05/09 10:25:04;;;;;;;2.25;1.95;;;;;;;14.22;39.99;100118.61;1714606;82;21346;-73
2021/05/09 10:27:39;;;;;;;2.25;2.05;;;;;;;14.01;39.92;100121.64;1706584;83;21187;-73
2021/05/09 10:30:12;;;;;;;3.02;2.20;;;;;;;13.85;39.89;100132.15;1782106;80;21273;-73
2021/05/09 10:32:45;;;;;;;2.62;2.15;;;;;;;13.82;41.24;100128.38;1774481;80;21115;-76
2021/05/09 10:35:12;;;;;;;3.58;2.33;;;;;;;13.99;42.22;100119.11;1756542;80;21128;-73
2021/05/09 10:37:45;;;;;;;3.70;2.10;;;;;;;14.02;39.60;100123.34;1775826;80;21583;-73
2021/05/09 10:40:25;;;;;;;3.27;2.10;;;;;;;13.79;41.15;100127.80;1760727;80;21278;-74
2021/05/09 10:43:08;;;;;;;3.15;2.30;;;;;;;13.60;41.33;100130.05;1761528;80;21159;-74
2021/05/09 10:45:41;;;;;;;2.90;2.30;;;;;;;13.48;40.16;100126.16;1755570;82;21120;-74
2021/05/09 10:48:30;;;;;;;2.80;2.35;;;;;;;13.27;41.14;100120.16;1757501;80;21167;-74
2021/05/09 10:51:14;;;;;;;2.67;2.27;;;;;;;13.16;42.03;100124.11;1756628;80;21266;-74
2021/05/09 10:53:42;;;;;;;3.20;2.62;;;;;;;13.31;42.85;100126.09;1778086;80;21083;-74
2021/05/09 10:56:21;;;;;;;4.50;2.37;;;;;;;13.53;43.33;100126.19;1783014;80;21158;-74
2021/05/09 10:58:51;;;;;;;55.05;5.30;;;;;;;14.13;42.45;100110.50;1786806;80;21143;-74
2021/05/09 11:01:29;;;;;;;2.58;1.95;;;;;;;14.40;40.26;100113.62;1777906;80;21316;-73
2021/05/09 11:04:04;;;;;;;2.83;1.95;;;;;;;14.40;40.26;100113.62;1746649;82;21136;-73
2021/05/09 11:06:45;;;;;;;2.10;1.90;;;;;;;14.35;39.34;100109.16;1746627;82;21654;-73
2021/05/09 11:09:28;;;;;;;2.55;1.87;;;;;;;14.35;39.34;100109.16;1725001;82;21769;-73
2021/05/09 11:12:00;;;;;;;2.83;2.00;;;;;;;14.42;39.39;100110.83;1767809;80;21155;-73
2021/05/09 11:14:27;;;;;;;4.95;2.00;;;;;;;14.50;40.20;100117.72;1771028;80;21151;-73
2021/05/09 11:17:02;;;;;;;2.40;1.90;;;;;;;14.58;39.98;100105.95;1752891;82;21199;-72
2021/05/09 11:19:47;;;;;;;3.10;2.10;;;;;;;14.74;41.39;100112.72;1740014;82;21119;-74
2021/05/09 11:22:18;;;;;;;2.10;1.90;;;;;;;14.97;38.62;100109.98;1729419;82;21160;-74
2021/05/09 11:24:54;;;;;;;2.05;1.70;;;;;;;15.02;36.88;100113.10;1764380;80;21727;-73
2021/05/09 11:27:22;;;;;;;2.40;2.02;;;;;;;15.03;38.04;100109.47;1764392;80;21623;-74
2021/05/09 11:29:51;;;;;;;3.40;2.40;;;;;;;14.97;36.34;100101.98;1755537;81;21643;-73
2021/05/09 11:32:21;;;;;;;8.40;6.03;;;;;;;14.90;37.61;100106.98;1773204;80;21737;-74
2021/05/09 11:34:51;;;;;;;9.38;6.08;;;;;;;14.82;37.89;100108.95;1783806;80;21178;-74
2021/05/09 11:37:19;;;;;;;8.28;4.87;;;;;;;14.75;37.00;100104.59;1754258;80;21289;-74
2021/05/09 11:39:46;;;;;;;3.02;2.05;;;;;;;14.67;38.43;100099.56;1728242;82;21537;-75
2021/05/09 11:42:19;;;;;;;2.75;1.90;;;;;;;14.74;39.12;100097.61;1770670;80;21322;-75
2021/05/09 11:44:52;;;;;;;6.87;4.70;;;;;;;15.02;39.33;100096.62;1754722;80;21100;-74